createdAt,value
2022-08-26T00:02:07.588Z,101240.16
2022-08-26T00:04:35.582Z,101246.09
2022-08-26T00:07:06.479Z,101237.22
2022-08-26T00:09:38.978Z,101235.22
2022-08-26T00:12:07.041Z,101229.97
2022-08-26T00:14:34.319Z,101218.00
2022-08-26T00:17:01.538Z,101224.97
2022-08-26T00:19:29.124Z,101223.03
2022-08-26T00:21:59.299Z,101218.66
2022-08-26T00:24:26.716Z,101212.16
2022-08-26T00:26:53.918Z,101211.09
2022-08-26T00:29:21.430Z,101213.81
2022-08-26T00:31:49.624Z,101218.31
2022-08-26T00:34:19.774Z,101220.28
2022-08-26T00:36:51.836Z,101226.56
2022-08-26T00:39:20.218Z,101227.41
2022-08-26T00:41:50.997Z,101228.31
2022-08-26T00:44:20.348Z,101231.09
2022-08-26T00:46:53.523Z,101229.34
2022-08-26T00:49:37.715Z,101226.84
2022-08-26T00:52:11.901Z,101224.41
2022-08-26T00:54:47.095Z,101231.59
2022-08-26T00:57:20.131Z,101232.44
2022-08-26T00:59:51.513Z,101235.97
2022-08-26T01:02:21.728Z,101229.84
2022-08-26T01:04:56.461Z,101229.09
2022-08-26T01:07:30.017Z,101231.03
2022-08-26T01:10:00.969Z,101237.34
2022-08-26T01:12:32.298Z,101234.63
2022-08-26T01:15:00.970Z,101230.28
2022-08-26T01:17:28.229Z,101216.13
2022-08-26T01:20:03.466Z,101222.31
2022-08-26T01:22:53.399Z,101224.25
2022-08-26T01:25:24.439Z,101224.31
2022-08-26T01:27:59.031Z,101229.63
2022-08-26T01:30:28.225Z,101232.28
2022-08-26T01:32:57.984Z,101241.28
2022-08-26T01:35:25.544Z,101245.72
2022-08-26T01:37:55.253Z,101244.81
2022-08-26T01:40:28.387Z,101245.63
2022-08-26T01:42:55.796Z,101248.59
2022-08-26T01:45:26.647Z,101250.31
2022-08-26T01:47:58.592Z,101251.19
2022-08-26T01:50:33.626Z,101253.81
2022-08-26T01:53:06.340Z,101258.16
2022-08-26T01:55:35.765Z,101250.75
2022-08-26T01:58:10.562Z,101259.31
2022-08-26T02:00:45.594Z,101251.19
2022-08-26T02:03:19.144Z,101252.81
2022-08-26T02:05:51.511Z,101249.22
2022-08-26T02:08:28.089Z,101250.84
2022-08-26T02:10:58.882Z,101244.72
2022-08-26T02:13:33.210Z,101254.31
2022-08-26T02:16:04.583Z,101251.63
2022-08-26T02:18:35.389Z,101249.97
2022-08-26T02:21:06.766Z,101250.09
2022-08-26T02:23:38.600Z,101252.03
2022-08-26T02:26:27.005Z,101248.78
2022-08-26T02:29:09.475Z,101246.19
2022-08-26T02:31:41.907Z,101244.53
2022-08-26T02:34:21.592Z,101250.88
2022-08-26T02:36:54.739Z,101252.84
2022-08-26T02:39:22.602Z,101259.31
2022-08-26T02:41:54.022Z,101254.81
2022-08-26T02:44:24.396Z,101252.56
2022-08-26T02:46:57.609Z,101256.75
2022-08-26T02:49:31.707Z,101251.50
2022-08-26T02:52:01.869Z,101250.78
2022-08-26T02:54:32.947Z,101257.88
2022-08-26T02:57:08.844Z,101250.06
2022-08-26T03:02:40.369Z,101258.16
2022-08-26T03:05:08.033Z,101250.19
2022-08-26T03:07:35.025Z,101249.31
2022-08-26T03:10:06.889Z,101248.53
2022-08-26T03:12:36.309Z,101248.63
2022-08-26T03:15:16.631Z,101249.56
2022-08-26T03:17:47.948Z,101250.44
2022-08-26T03:20:17.446Z,101247.88
2022-08-26T03:22:45.523Z,101251.38
2022-08-26T03:25:14.285Z,101248.81
2022-08-26T03:27:41.960Z,101246.94
2022-08-26T03:30:30.697Z,101248.72
2022-08-26T03:32:58.280Z,101251.41
2022-08-26T03:35:26.020Z,101266.50
2022-08-26T03:37:53.998Z,101250.50
2022-08-26T03:40:22.360Z,101253.06
2022-08-26T03:42:50.266Z,101254.78
2022-08-26T03:45:18.923Z,101260.25
2022-08-26T03:47:46.943Z,101264.59
2022-08-26T03:50:24.372Z,101267.22
2022-08-26T03:52:53.838Z,101268.13
2022-08-26T03:55:24.876Z,101277.00
2022-08-26T03:57:52.757Z,101282.25
2022-08-26T04:00:23.711Z,101289.34
2022-08-26T04:02:53.483Z,101291.16
2022-08-26T04:05:27.269Z,101296.53
2022-08-26T04:07:58.546Z,101296.72
2022-08-26T04:10:28.995Z,101301.78
2022-08-26T04:12:58.872Z,101304.50
2022-08-26T04:15:27.426Z,101294.69
2022-08-26T04:18:03.786Z,101306.09
2022-08-26T04:20:32.254Z,101305.28
2022-08-26T04:23:02.510Z,101304.41
2022-08-26T04:25:35.897Z,101299.13
2022-08-26T04:28:05.432Z,101297.59
2022-08-26T04:30:35.269Z,101301.59
2022-08-26T04:33:04.779Z,101304.94
2022-08-26T04:35:43.159Z,101299.72
2022-08-26T04:38:14.162Z,101298.84
2022-08-26T04:40:47.014Z,101305.09
2022-08-26T04:43:15.597Z,101308.41
2022-08-26T04:45:45.723Z,101309.13
2022-08-26T04:48:13.029Z,101313.53
2022-08-26T04:50:47.181Z,101316.50
2022-08-26T04:53:19.879Z,101321.63
2022-08-26T04:55:48.537Z,101325.25
2022-08-26T04:58:20.032Z,101323.50
2022-08-26T05:00:49.410Z,101329.81
2022-08-26T05:03:20.443Z,101334.25
2022-08-26T05:05:50.240Z,101337.81
2022-08-26T05:08:22.715Z,101334.25
2022-08-26T05:10:56.697Z,101331.59
2022-08-26T05:13:28.505Z,101332.66
2022-08-26T05:15:59.977Z,101324.75
2022-08-26T05:18:30.103Z,101325.78
2022-08-26T05:20:57.683Z,101335.38
2022-08-26T05:23:28.025Z,101332.78
2022-08-26T05:25:59.265Z,101335.34
2022-08-26T05:28:30.453Z,101336.25
2022-08-26T05:30:57.971Z,101333.72
2022-08-26T05:33:25.331Z,101333.25
2022-08-26T05:35:54.981Z,101331.47
2022-08-26T05:38:25.577Z,101335.69
2022-08-26T05:40:57.787Z,101332.06
2022-08-26T05:43:25.034Z,101333.78
2022-08-26T05:45:52.433Z,101333.81
2022-08-26T05:48:24.321Z,101334.00
2022-08-26T05:50:53.445Z,101331.84
2022-08-26T05:53:27.008Z,101330.91
2022-08-26T05:55:56.305Z,101333.56
2022-08-26T05:58:26.684Z,101332.59
2022-08-26T06:01:22.012Z,101331.84
2022-08-26T06:03:59.654Z,101340.44
2022-08-26T06:06:35.837Z,101340.31
2022-08-26T06:09:11.105Z,101339.13
2022-08-26T06:11:41.895Z,101340.81
2022-08-26T06:14:13.485Z,101339.91
2022-08-26T06:16:44.452Z,101342.72
2022-08-26T06:19:15.877Z,101344.63
2022-08-26T06:21:51.377Z,101341.09
2022-08-26T06:24:41.745Z,101340.03
2022-08-26T06:27:15.327Z,101343.44
2022-08-26T06:29:42.813Z,101346.31
2022-08-26T06:32:13.106Z,101354.94
2022-08-26T06:34:40.250Z,101351.31
2022-08-26T06:37:10.571Z,101348.56
2022-08-26T06:39:40.204Z,101352.22
2022-08-26T06:42:12.007Z,101344.44
2022-08-26T06:44:44.669Z,101348.75
2022-08-26T06:47:15.867Z,101340.50
2022-08-26T06:49:44.313Z,101343.84
2022-08-26T06:52:16.516Z,101351.03
2022-08-26T06:54:47.707Z,101347.31
2022-08-26T06:57:19.750Z,101347.31
2022-08-26T06:59:48.564Z,101346.50
2022-08-26T07:02:28.689Z,101351.47
2022-08-26T07:05:01.827Z,101341.81
2022-08-26T07:07:30.165Z,101343.56
2022-08-26T07:10:02.107Z,101348.78
2022-08-26T07:12:34.104Z,101338.63
2022-08-26T07:15:03.288Z,101359.03
2022-08-26T07:17:32.086Z,101342.06
2022-08-26T07:20:03.751Z,101344.00
2022-08-26T07:22:32.117Z,101347.34
2022-08-26T07:25:02.785Z,101347.09
2022-08-26T07:27:33.830Z,101344.28
2022-08-26T07:30:02.031Z,101344.06
2022-08-26T07:32:34.347Z,101333.06
2022-08-26T07:35:06.719Z,101326.50
2022-08-26T07:37:35.615Z,101331.22
2022-08-26T07:40:07.726Z,101331.88
2022-08-26T07:42:41.974Z,101325.56
2022-08-26T07:45:09.666Z,101324.19
2022-08-26T07:47:39.491Z,101327.59
2022-08-26T07:50:07.942Z,101321.22
2022-08-26T07:52:38.584Z,101318.53
2022-08-26T07:55:10.766Z,101319.00
2022-08-26T07:57:38.162Z,101313.47
2022-08-26T08:00:15.787Z,101314.25
2022-08-26T08:02:45.443Z,101316.41
2022-08-26T08:05:33.525Z,101327.06
2022-08-26T08:08:26.339Z,101312.47
2022-08-26T08:10:55.979Z,101318.09
2022-08-26T08:13:24.553Z,101317.66
2022-08-26T08:15:55.352Z,101314.19
2022-08-26T08:18:29.193Z,101320.28
2022-08-26T08:21:10.857Z,101314.38
2022-08-26T08:23:46.409Z,101318.09
2022-08-26T08:26:15.197Z,101313.06
2022-08-26T08:28:48.006Z,101308.00
2022-08-26T08:31:45.005Z,101312.81
2022-08-26T08:34:13.208Z,101317.94
2022-08-26T08:36:42.615Z,101324.09
2022-08-26T08:39:16.552Z,101317.16
2022-08-26T08:41:52.859Z,101315.69
2022-08-26T08:44:29.415Z,101309.31
2022-08-26T08:47:10.414Z,101311.59
2022-08-26T08:49:41.108Z,101304.91
2022-08-26T08:52:31.620Z,101308.22
2022-08-26T08:55:01.550Z,101307.31
2022-08-26T08:58:02.503Z,101303.22
2022-08-26T09:00:50.610Z,101304.09
2022-08-26T09:03:41.351Z,101298.78
2022-08-26T09:06:17.516Z,101303.06
2022-08-26T09:08:50.095Z,101302.06
2022-08-26T09:11:22.427Z,101296.69
2022-08-26T09:14:01.042Z,101302.56
2022-08-26T09:17:11.138Z,101299.88
2022-08-26T09:20:05.149Z,101300.41
2022-08-26T09:22:47.269Z,101302.00
2022-08-26T09:25:20.166Z,101301.50
2022-08-26T09:27:51.363Z,101293.50
2022-08-26T09:30:43.084Z,101295.34
2022-08-26T09:33:17.524Z,101293.78
2022-08-26T09:35:49.298Z,101286.72
2022-08-26T09:38:40.769Z,101289.56
2022-08-26T09:41:36.703Z,101293.34
2022-08-26T09:44:15.591Z,101288.31
2022-08-26T09:47:07.422Z,101283.16
2022-08-26T09:49:56.867Z,101284.03
2022-08-26T09:52:27.938Z,101285.03
2022-08-26T09:55:09.205Z,101285.84
2022-08-26T09:57:49.169Z,101284.22
2022-08-26T10:00:38.398Z,101284.22
2022-08-26T10:03:17.360Z,101280.25
2022-08-26T10:06:00.279Z,101286.25
2022-08-26T10:08:42.173Z,101285.72
2022-08-26T10:11:48.030Z,101278.28
2022-08-26T10:14:29.587Z,101281.75
2022-08-26T10:17:20.234Z,101277.47
2022-08-26T10:20:23.205Z,101281.59
2022-08-26T10:23:14.087Z,101279.44
2022-08-26T10:25:53.928Z,101275.22
2022-08-26T10:28:44.258Z,101278.66
2022-08-26T10:31:27.750Z,101279.38
2022-08-26T10:33:58.834Z,101269.81
2022-08-26T10:37:10.821Z,101264.66
2022-08-26T10:39:52.227Z,101282.03
2022-08-26T10:42:40.877Z,101280.50
2022-08-26T10:45:14.805Z,101277.69
2022-08-26T10:48:07.815Z,101274.72
2022-08-26T10:50:51.261Z,101273.50
2022-08-26T10:53:44.339Z,101281.09
2022-08-26T10:56:46.600Z,101275.63
2022-08-26T10:59:40.569Z,101267.28
2022-08-26T11:02:25.552Z,101279.69
2022-08-26T11:05:02.115Z,101278.28
2022-08-26T11:07:54.892Z,101271.56
2022-08-26T11:10:26.410Z,101264.84
2022-08-26T11:12:57.538Z,101270.19
2022-08-26T11:15:28.697Z,101260.03
2022-08-26T11:18:10.564Z,101266.31
2022-08-26T11:20:47.584Z,101253.94
2022-08-26T11:23:30.937Z,101263.78
2022-08-26T11:26:11.161Z,101257.00
2022-08-26T11:28:48.386Z,101248.31
2022-08-26T11:31:35.235Z,101240.03
2022-08-26T11:34:17.392Z,101245.44
2022-08-26T11:37:06.436Z,101244.09
2022-08-26T11:39:58.771Z,101227.09
2022-08-26T11:42:34.915Z,101233.66
2022-08-26T11:45:17.038Z,101239.03
2022-08-26T11:47:47.446Z,101241.88
2022-08-26T11:50:31.800Z,101243.88
2022-08-26T11:53:09.151Z,101237.63
2022-08-26T11:55:47.312Z,101241.53
2022-08-26T11:58:16.966Z,101230.31
2022-08-26T12:00:47.731Z,101251.53
2022-08-26T12:03:38.561Z,101252.97
2022-08-26T12:06:44.993Z,101245.13
2022-08-26T12:09:24.474Z,101244.88
2022-08-26T12:11:55.611Z,101237.69
2022-08-26T12:14:33.699Z,101230.25
2022-08-26T12:17:29.237Z,101228.41
2022-08-26T12:20:06.520Z,101220.75
2022-08-26T12:22:39.439Z,101205.19
2022-08-26T12:25:25.581Z,101207.94
2022-08-26T12:28:03.227Z,101196.59
2022-08-26T12:30:32.181Z,101192.34
2022-08-26T12:33:22.707Z,101197.47
2022-08-26T12:35:59.597Z,101198.59
2022-08-26T12:38:31.391Z,101180.59
2022-08-26T12:41:04.451Z,101182.63
2022-08-26T12:43:51.957Z,101178.31
2022-08-26T12:46:32.472Z,101178.97
2022-08-26T12:49:04.678Z,101167.69
2022-08-26T12:51:42.495Z,101163.22
2022-08-26T12:54:16.218Z,101168.03
2022-08-26T12:56:49.154Z,101164.06
2022-08-26T12:59:25.941Z,101164.31
2022-08-26T13:01:54.181Z,101168.97
2022-08-26T13:04:48.741Z,101165.06
2022-08-26T13:07:22.457Z,101157.06
2022-08-26T13:09:59.007Z,101153.31
2022-08-26T13:12:41.526Z,101153.78
2022-08-26T13:15:16.786Z,101144.56
2022-08-26T13:17:52.367Z,101142.69
2022-08-26T13:20:28.620Z,101147.34
2022-08-26T13:23:01.523Z,101134.66
2022-08-26T13:25:32.374Z,101134.97
2022-08-26T13:28:08.073Z,101127.19
2022-08-26T13:30:40.537Z,101124.22
2022-08-26T13:33:17.216Z,101129.13
2022-08-26T13:35:48.239Z,101122.63
2022-08-26T13:38:32.876Z,101121.31
2022-08-26T13:41:04.349Z,101116.06
2022-08-26T13:43:35.362Z,101108.72
2022-08-26T13:46:05.540Z,101103.59
2022-08-26T13:48:41.312Z,101101.06
2022-08-26T13:51:14.865Z,101110.06
2022-08-26T13:53:47.354Z,101110.16
2022-08-26T13:56:20.023Z,101103.38
2022-08-26T13:58:52.296Z,101106.50
2022-08-26T14:01:25.307Z,101087.88
2022-08-26T14:03:56.074Z,101103.91
2022-08-26T14:06:25.616Z,101087.34
2022-08-26T14:09:01.255Z,101100.41
2022-08-26T14:11:53.855Z,101087.81
2022-08-26T14:14:27.518Z,101078.28
2022-08-26T14:17:02.693Z,101075.06
2022-08-26T14:19:33.199Z,101060.19
2022-08-26T14:22:03.389Z,101053.09
2022-08-26T14:24:31.097Z,101052.75
2022-08-26T14:27:00.687Z,101047.19
2022-08-26T14:29:28.564Z,101050.19
2022-08-26T14:32:01.013Z,101042.88
2022-08-26T14:34:28.883Z,101049.34
2022-08-26T14:36:58.399Z,101036.28
2022-08-26T14:39:38.379Z,101032.97
2022-08-26T14:42:06.527Z,101035.00
2022-08-26T14:44:38.175Z,101028.06
2022-08-26T14:47:07.052Z,101030.22
2022-08-26T14:49:34.311Z,101038.50
2022-08-26T14:52:04.526Z,101031.06
2022-08-26T14:54:34.750Z,101018.28
2022-08-26T14:57:16.428Z,101025.28
2022-08-26T14:59:50.332Z,101028.31
2022-08-26T15:02:33.704Z,101031.63
2022-08-26T15:05:12.335Z,101027.81
2022-08-26T15:07:40.313Z,101027.09
2022-08-26T15:10:24.099Z,101027.16
2022-08-26T15:12:54.889Z,101029.06
2022-08-26T15:15:31.740Z,101027.47
2022-08-26T15:18:03.693Z,101029.50
2022-08-26T15:20:34.299Z,101027.97
2022-08-26T15:23:06.942Z,101013.94
2022-08-26T15:25:37.580Z,101025.31
2022-08-26T15:28:08.217Z,101025.75
2022-08-26T15:30:39.217Z,101030.75
2022-08-26T15:33:17.199Z,101028.72
2022-08-26T15:35:58.502Z,101027.31
2022-08-26T15:38:26.396Z,101041.63
2022-08-26T15:40:59.790Z,101019.03
2022-08-26T15:43:35.933Z,101023.16
2022-08-26T15:46:13.678Z,101022.75
2022-08-26T15:48:48.535Z,101028.81
2022-08-26T15:51:46.370Z,101022.41
2022-08-26T15:54:17.132Z,101021.47
2022-08-26T15:56:47.910Z,101009.97
2022-08-26T15:59:22.233Z,101009.50
2022-08-26T16:01:52.872Z,101005.88
2022-08-26T16:04:20.961Z,100999.38
2022-08-26T16:06:56.439Z,100989.63
2022-08-26T16:09:30.502Z,101004.88
2022-08-26T16:12:03.439Z,101005.88
2022-08-26T16:14:33.075Z,100999.34
2022-08-26T16:17:10.246Z,101001.31
2022-08-26T16:19:43.793Z,101002.41
2022-08-26T16:22:13.654Z,101000.56
2022-08-26T16:24:56.202Z,100994.59
2022-08-26T16:27:27.826Z,100986.88
2022-08-26T16:29:57.724Z,100990.84
2022-08-26T16:32:31.372Z,100989.38
2022-08-26T16:34:59.033Z,100985.56
2022-08-26T16:37:29.547Z,100978.72
2022-08-26T16:40:03.289Z,100984.13
2022-08-26T16:42:30.877Z,100985.13
2022-08-26T16:45:01.710Z,100988.19
2022-08-26T16:47:29.129Z,100990.28
2022-08-26T16:49:56.889Z,100988.78
2022-08-26T16:52:28.293Z,100994.38
2022-08-26T16:55:04.140Z,100997.53
2022-08-26T16:57:34.614Z,101004.53
2022-08-26T17:00:11.503Z,101008.91
2022-08-26T17:02:50.698Z,101009.06
2022-08-26T17:05:34.214Z,101008.31
2022-08-26T17:08:10.000Z,101005.81
2022-08-26T17:10:45.075Z,101006.47
2022-08-26T17:13:24.101Z,101009.72
2022-08-26T17:16:16.410Z,101017.59
2022-08-26T17:18:44.534Z,101020.97
2022-08-26T17:21:15.537Z,101013.78
2022-08-26T17:23:52.196Z,101012.53
2022-08-26T17:26:22.470Z,101002.19
2022-08-26T17:28:53.330Z,101009.47
2022-08-26T17:31:21.948Z,100998.72
2022-08-26T17:33:53.841Z,101004.66
2022-08-26T17:36:23.180Z,101003.75
2022-08-26T17:38:56.204Z,100998.16
2022-08-26T17:41:27.549Z,101000.84
2022-08-26T17:43:55.817Z,100994.31
2022-08-26T17:46:38.173Z,100996.28
2022-08-26T17:49:07.254Z,100998.88
2022-08-26T17:51:38.122Z,101001.69
2022-08-26T17:54:09.515Z,101003.50
2022-08-26T17:56:37.169Z,101001.22
2022-08-26T17:59:07.564Z,101000.78
2022-08-26T18:01:37.665Z,101002.69
2022-08-26T18:04:06.249Z,101015.22
2022-08-26T18:06:41.279Z,101010.03
2022-08-26T18:09:08.924Z,101011.25
2022-08-26T18:11:40.535Z,101023.22
2022-08-26T18:14:16.234Z,101019.16
2022-08-26T18:16:47.133Z,101017.38
2022-08-26T18:19:19.994Z,101031.47
2022-08-26T18:22:01.513Z,101040.25
2022-08-26T18:24:36.364Z,101048.72
2022-08-26T18:27:10.557Z,101052.13
2022-08-26T18:29:48.761Z,101051.34
2022-08-26T18:32:27.338Z,101054.16
2022-08-26T18:35:00.067Z,101051.91
2022-08-26T18:37:31.014Z,101052.88
2022-08-26T18:40:11.642Z,101055.47
2022-08-26T18:42:49.391Z,101057.00
2022-08-26T18:45:22.989Z,101054.47
2022-08-26T18:47:59.139Z,101052.50
2022-08-26T18:50:26.380Z,101049.16
2022-08-26T18:52:58.995Z,101052.31
2022-08-26T18:55:31.569Z,101058.88
2022-08-26T18:58:08.109Z,101062.81
2022-08-26T19:00:35.587Z,101067.00
2022-08-26T19:03:03.049Z,101064.66
2022-08-26T19:05:31.329Z,101062.31
2022-08-26T19:07:58.812Z,101066.00
2022-08-26T19:10:26.330Z,101065.09
2022-08-26T19:12:55.376Z,101068.47
2022-08-26T19:15:26.596Z,101065.50
2022-08-26T19:17:54.018Z,101065.22
2022-08-26T19:20:21.348Z,101066.66
2022-08-26T19:22:48.514Z,101070.63
2022-08-26T19:25:16.187Z,101077.72
2022-08-26T19:27:46.163Z,101077.50
2022-08-26T19:30:19.063Z,101076.88
2022-08-26T19:32:48.284Z,101073.47
2022-08-26T19:35:15.933Z,101061.41
2022-08-26T19:37:46.413Z,101065.38
2022-08-26T19:40:14.524Z,101069.59
2022-08-26T19:42:50.826Z,101071.69
2022-08-26T19:45:24.711Z,101082.13
2022-08-26T19:47:56.244Z,101087.84
2022-08-26T19:50:26.773Z,101090.41
2022-08-26T19:52:54.444Z,101092.25
2022-08-26T19:55:23.746Z,101089.94
2022-08-26T19:57:52.743Z,101089.25
2022-08-26T20:00:24.324Z,101090.66
2022-08-26T20:02:55.385Z,101089.53
2022-08-26T20:05:24.928Z,101103.59
2022-08-26T20:07:53.905Z,101115.38
2022-08-26T20:10:26.328Z,101115.94
2022-08-26T20:12:56.718Z,101103.97
2022-08-26T20:15:26.535Z,101094.38
2022-08-26T20:17:56.013Z,101089.34
2022-08-26T20:20:45.040Z,101074.75
2022-08-26T20:23:12.605Z,101088.19
2022-08-26T20:25:43.074Z,101098.63
2022-08-26T20:28:12.249Z,101100.50
2022-08-26T20:30:39.860Z,101100.72
2022-08-26T20:33:10.194Z,101099.25
2022-08-26T20:35:37.464Z,101090.94
2022-08-26T20:38:10.825Z,101091.16
2022-08-26T20:40:38.269Z,101089.47
2022-08-26T20:43:06.524Z,101088.22
2022-08-26T20:45:34.460Z,101088.63
2022-08-26T20:48:03.190Z,101095.69
2022-08-26T20:50:32.922Z,101102.25
2022-08-26T20:53:00.753Z,101103.94
2022-08-26T20:55:43.103Z,101113.44
2022-08-26T20:58:10.330Z,101119.84
2022-08-26T21:00:38.446Z,101111.31
2022-08-26T21:03:06.021Z,101123.56
2022-08-26T21:05:34.718Z,101125.34
2022-08-26T21:08:01.989Z,101132.09
2022-08-26T21:10:30.569Z,101144.00
2022-08-26T21:12:58.550Z,101154.69
2022-08-26T21:15:33.761Z,101155.59
2022-08-26T21:18:01.103Z,101150.94
2022-08-26T21:20:29.182Z,101150.78
2022-08-26T21:22:59.446Z,101150.72
2022-08-26T21:25:29.716Z,101147.25
2022-08-26T21:27:59.393Z,101152.00
2022-08-26T21:30:26.666Z,101149.53
2022-08-26T21:32:53.721Z,101152.72
2022-08-26T21:35:20.958Z,101149.84
2022-08-26T21:37:48.160Z,101143.97
2022-08-26T21:40:15.535Z,101142.50
2022-08-26T21:42:42.917Z,101137.72
2022-08-26T21:45:10.399Z,101135.66
2022-08-26T21:47:38.051Z,101134.53
2022-08-26T21:50:05.882Z,101134.06
2022-08-26T21:52:33.304Z,101137.28
2022-08-26T21:55:05.103Z,101145.81
2022-08-26T21:57:36.657Z,101145.94
2022-08-26T22:00:09.335Z,101148.28
2022-08-26T22:02:37.336Z,101146.81
2022-08-26T22:05:04.968Z,101146.00
2022-08-26T22:07:32.266Z,101148.03
2022-08-26T22:09:59.472Z,101137.50
2022-08-26T22:12:26.737Z,101135.59
2022-08-26T22:14:54.309Z,101136.91
2022-08-26T22:17:22.789Z,101132.13
2022-08-26T22:19:50.304Z,101129.34
2022-08-26T22:22:19.104Z,101135.91
2022-08-26T22:24:46.359Z,101130.44
2022-08-26T22:27:14.390Z,101130.78
2022-08-26T22:29:41.672Z,101138.53
2022-08-26T22:32:08.927Z,101146.34
2022-08-26T22:34:36.366Z,101147.19
2022-08-26T22:37:06.561Z,101154.09
2022-08-26T22:39:33.977Z,101153.16
2022-08-26T22:42:01.536Z,101154.97
2022-08-26T22:44:28.930Z,101162.13
2022-08-26T22:46:56.238Z,101161.19
2022-08-26T22:49:25.016Z,101157.66
2022-08-26T22:51:52.269Z,101164.78
2022-08-26T22:54:19.619Z,101164.88
2022-08-26T22:56:49.274Z,101164.00
2022-08-26T22:59:17.017Z,101164.19
2022-08-26T23:01:44.978Z,101166.75
2022-08-26T23:04:12.516Z,101178.22
2022-08-26T23:06:42.108Z,101169.44
2022-08-26T23:09:12.133Z,101168.56
2022-08-26T23:11:43.317Z,101175.88
2022-08-26T23:14:11.579Z,101181.28
2022-08-26T23:16:44.932Z,101181.28
2022-08-26T23:19:14.078Z,101177.66
2022-08-26T23:21:41.278Z,101171.53
2022-08-26T23:24:10.326Z,101167.13
2022-08-26T23:26:38.716Z,101162.50
2022-08-26T23:29:08.716Z,101162.78
2022-08-26T23:31:41.344Z,101155.66
2022-08-26T23:34:27.614Z,101152.09
2022-08-26T23:36:57.185Z,101144.09
2022-08-26T23:39:25.811Z,101140.56
2022-08-26T23:41:53.194Z,101137.00
2022-08-26T23:44:21.045Z,101135.22
2022-08-26T23:46:48.432Z,101122.72
2022-08-26T23:49:15.515Z,101120.97
2022-08-26T23:52:01.028Z,101118.28
2022-08-26T23:54:28.361Z,101107.69
2022-08-26T23:56:55.779Z,101103.22
